createdAt,value
2022-08-05T00:01:27.987Z,21.08
2022-08-05T00:05:05.614Z,21.01
2022-08-05T00:08:34.592Z,20.93
2022-08-05T00:12:13.158Z,20.89
2022-08-05T00:15:56.201Z,20.82
2022-08-05T00:19:17.272Z,20.79
2022-08-05T00:22:41.969Z,20.78
2022-08-05T00:26:20.561Z,20.72
2022-08-05T00:29:46.327Z,20.67
2022-08-05T00:34:54.741Z,20.70
2022-08-05T00:37:11.169Z,20.65
2022-08-05T00:40:29.535Z,20.62
2022-08-05T00:44:06.388Z,20.61
2022-08-05T00:47:56.783Z,20.57
2022-08-05T00:51:50.318Z,20.54
2022-08-05T00:54:53.775Z,20.49
2022-08-05T00:58:21.696Z,20.44
2022-08-05T01:02:00.313Z,20.37
2022-08-05T01:05:30.179Z,20.39
2022-08-05T01:09:08.105Z,20.32
2022-08-05T01:12:33.978Z,20.28
2022-08-05T01:16:21.059Z,20.23
2022-08-05T01:20:02.451Z,20.20
2022-08-05T01:23:58.132Z,20.15
2022-08-05T01:27:32.874Z,20.13
2022-08-05T01:31:33.248Z,20.12
2022-08-05T01:35:02.897Z,20.06
2022-08-05T01:38:37.569Z,20.02
2022-08-05T01:42:18.536Z,19.98
2022-08-05T01:45:44.692Z,19.93
2022-08-05T01:49:26.790Z,19.92
2022-08-05T01:52:56.982Z,19.87
2022-08-05T01:58:12.153Z,19.84
2022-08-05T02:00:12.298Z,19.83
2022-08-05T02:03:45.388Z,19.78
2022-08-05T02:07:22.990Z,19.76
2022-08-05T02:11:05.274Z,19.70
2022-08-05T02:15:12.496Z,19.72
2022-08-05T02:18:52.696Z,19.72
2022-08-05T02:22:32.171Z,19.72
2022-08-05T02:26:02.673Z,19.65
2022-08-05T02:29:59.216Z,19.63
2022-08-05T02:33:16.658Z,19.58
2022-08-05T02:37:04.397Z,19.55
2022-08-05T02:40:30.218Z,19.51
2022-08-05T02:44:13.096Z,19.47
2022-08-05T02:48:07.476Z,19.45
2022-08-05T02:51:28.296Z,19.40
2022-08-05T02:54:50.909Z,19.36
2022-08-05T02:58:30.347Z,19.29
2022-08-05T03:02:00.595Z,19.28
2022-08-05T03:06:54.335Z,19.23
2022-08-05T03:09:27.155Z,19.17
2022-08-05T03:12:46.343Z,19.16
2022-08-05T03:16:24.272Z,19.11
2022-08-05T03:19:54.501Z,19.12
2022-08-05T03:23:37.592Z,19.06
2022-08-05T03:27:03.634Z,19.04
2022-08-05T03:30:45.038Z,19.01
2022-08-05T03:34:13.278Z,19.01
2022-08-05T03:37:46.281Z,19.01
2022-08-05T03:41:23.687Z,19.01
2022-08-05T03:44:47.707Z,18.99
2022-08-05T03:48:35.589Z,18.98
2022-08-05T03:52:37.822Z,18.98
2022-08-05T03:56:11.051Z,19.02
2022-08-05T03:59:46.570Z,19.05
2022-08-05T04:03:26.686Z,19.10
2022-08-05T04:06:54.344Z,19.16
2022-08-05T04:10:19.826Z,19.19
2022-08-05T04:14:00.442Z,19.25
2022-08-05T04:17:55.658Z,19.30
2022-08-05T04:21:11.248Z,19.40
2022-08-05T04:24:36.350Z,19.47
2022-08-05T04:28:18.702Z,19.53
2022-08-05T04:31:48.523Z,19.64
2022-08-05T04:35:26.151Z,19.78
2022-08-05T04:38:52.636Z,19.87
2022-08-05T04:42:21.153Z,19.96
2022-08-05T04:45:58.056Z,20.09
2022-08-05T04:49:24.586Z,20.21
2022-08-05T04:53:02.164Z,20.34
2022-08-05T04:56:33.174Z,20.52
2022-08-05T05:00:13.424Z,20.65
2022-08-05T05:03:42.365Z,20.88
2022-08-05T05:07:17.773Z,21.13
2022-08-05T05:10:56.420Z,21.29
2022-08-05T05:14:32.204Z,21.46
2022-08-05T05:17:56.219Z,21.71
2022-08-05T05:21:33.030Z,21.88
2022-08-05T05:25:00.132Z,22.07
2022-08-05T05:28:42.626Z,22.30
2022-08-05T05:32:05.805Z,22.45
2022-08-05T05:35:44.250Z,22.58
2022-08-05T05:39:16.441Z,22.75
2022-08-05T05:42:53.264Z,22.89
2022-08-05T05:46:29.984Z,23.04
2022-08-05T05:50:04.312Z,23.20
2022-08-05T05:53:53.992Z,23.35
2022-08-05T05:57:19.252Z,23.51
2022-08-05T06:00:52.329Z,23.63
2022-08-05T06:04:41.615Z,23.81
2022-08-05T06:08:08.281Z,23.89
2022-08-05T06:11:59.290Z,24.07
2022-08-05T06:16:30.645Z,24.19
2022-08-05T06:18:56.268Z,24.36
2022-08-05T06:22:33.502Z,24.50
2022-08-05T06:26:13.928Z,24.67
2022-08-05T06:29:49.650Z,24.83
2022-08-05T06:33:33.316Z,24.98
2022-08-05T06:37:02.344Z,25.24
2022-08-05T06:40:42.249Z,25.37
2022-08-05T06:44:19.214Z,25.57
2022-08-05T06:48:36.839Z,25.80
2022-08-05T06:51:26.654Z,25.93
2022-08-05T06:54:52.114Z,26.14
2022-08-05T06:58:30.037Z,26.44
2022-08-05T07:01:54.911Z,26.67
2022-08-05T07:05:37.480Z,26.86
2022-08-05T07:09:05.688Z,27.05
2022-08-05T07:18:00.997Z,27.51
2022-08-05T07:20:39.086Z,27.82
2022-08-05T07:24:11.407Z,28.21
2022-08-05T07:27:58.634Z,28.61
2022-08-05T07:31:41.066Z,28.83
2022-08-05T07:43:20.788Z,29.73
2022-08-05T07:46:48.272Z,29.92
2022-08-05T07:50:16.716Z,30.45
2022-08-05T07:53:50.818Z,30.59
2022-08-05T07:57:17.575Z,31.17
2022-08-05T08:04:39.154Z,32.01
2022-08-05T08:08:12.375Z,32.30
2022-08-05T08:11:58.970Z,32.58
2022-08-05T08:16:34.308Z,33.21
2022-08-05T08:18:58.590Z,33.67
2022-08-05T08:22:30.835Z,33.72
2022-08-05T08:26:04.690Z,34.11
2022-08-05T08:30:32.616Z,34.83
2022-08-05T08:33:54.332Z,35.12
2022-08-05T08:37:40.098Z,35.56
2022-08-05T08:41:14.287Z,35.36
2022-08-05T10:15:58.712Z,40.41
2022-08-05T10:37:57.855Z,41.76
2022-08-05T10:45:40.071Z,42.46
2022-08-05T10:49:09.778Z,41.72
2022-08-05T10:52:49.791Z,42.01
2022-08-05T11:03:26.949Z,39.52
2022-08-05T11:59:23.321Z,44.15
2022-08-05T12:14:04.382Z,40.32
2022-08-05T12:18:02.849Z,42.04
2022-08-05T12:28:38.642Z,43.08
2022-08-05T12:39:18.998Z,44.02
2022-08-05T12:42:38.222Z,42.62
2022-08-05T13:02:01.666Z,40.58
2022-08-05T13:04:21.342Z,39.14
2022-08-05T13:08:00.077Z,38.48
2022-08-05T13:14:37.766Z,38.13
2022-08-05T13:21:57.389Z,37.41
2022-08-05T13:25:22.035Z,37.20
2022-08-05T13:28:44.001Z,36.57
2022-08-05T13:32:07.759Z,36.85
2022-08-05T13:35:50.313Z,36.64
2022-08-05T13:42:38.190Z,35.72
2022-08-05T13:46:11.454Z,35.88
2022-08-05T13:49:37.726Z,36.05
2022-08-05T13:53:16.006Z,36.06
2022-08-05T13:56:36.639Z,35.97
2022-08-05T14:00:08.673Z,36.03
2022-08-05T14:03:39.154Z,35.78
2022-08-05T14:07:26.282Z,35.86
2022-08-05T14:10:39.184Z,35.73
2022-08-05T14:13:54.999Z,35.76
2022-08-05T14:17:05.913Z,35.77
2022-08-05T14:20:46.938Z,35.24
2022-08-05T14:24:13.199Z,35.28
2022-08-05T14:32:03.296Z,35.46
2022-08-05T14:35:07.019Z,35.51
2022-08-05T14:38:37.338Z,35.48
2022-08-05T14:42:19.585Z,35.59
2022-08-05T14:45:31.374Z,35.56
2022-08-05T14:48:50.084Z,35.29
2022-08-05T14:51:56.548Z,35.50
2022-08-05T17:45:09.891Z,30.87
2022-08-05T17:48:25.441Z,30.57
2022-08-05T18:36:54.150Z,27.65
2022-08-05T18:40:33.985Z,27.48
2022-08-05T18:43:17.307Z,27.38
2022-08-05T18:46:57.669Z,27.30
2022-08-05T18:50:53.245Z,27.17
2022-08-05T18:54:35.986Z,27.01
2022-08-05T18:58:16.368Z,26.80
2022-08-05T19:01:57.134Z,26.70
2022-08-05T19:06:11.319Z,26.57
2022-08-05T19:08:53.410Z,26.45
2022-08-05T19:12:22.310Z,26.33
2022-08-05T19:16:04.005Z,26.20
2022-08-05T19:19:33.560Z,26.10
2022-08-05T19:23:22.750Z,26.04
2022-08-05T19:26:54.485Z,25.96
2022-08-05T19:30:10.297Z,25.92
2022-08-05T19:33:48.350Z,25.83
2022-08-05T19:37:22.332Z,25.74
2022-08-05T19:40:47.692Z,25.64
2022-08-05T19:44:29.088Z,25.58
2022-08-05T19:47:55.787Z,25.55
2022-08-05T19:52:09.306Z,25.47
2022-08-05T19:56:14.916Z,25.35
2022-08-05T20:02:41.442Z,25.18
2022-08-05T20:06:29.336Z,25.14
2022-08-05T20:09:54.540Z,25.12
2022-08-05T20:13:29.983Z,25.03
2022-08-05T20:17:06.257Z,24.95
2022-08-05T20:20:49.448Z,24.86
2022-08-05T20:24:28.897Z,24.81
2022-08-05T20:28:13.800Z,24.77
2022-08-05T20:35:26.779Z,24.67
2022-08-05T20:38:57.976Z,24.67
2022-08-05T20:42:43.557Z,24.64
2022-08-05T20:46:09.223Z,24.61
2022-08-05T20:49:51.952Z,24.51
2022-08-05T20:53:37.136Z,24.47
2022-08-05T20:56:58.317Z,24.36
2022-08-05T21:00:49.741Z,24.23
2022-08-05T21:04:01.406Z,24.16
2022-08-05T21:07:50.802Z,24.11
2022-08-05T21:11:10.073Z,24.06
2022-08-05T21:14:26.800Z,23.99
2022-08-05T21:18:11.381Z,23.90
2022-08-05T21:21:44.158Z,23.81
2022-08-05T21:25:05.004Z,23.74
2022-08-05T21:28:50.634Z,23.68
2022-08-05T21:32:18.757Z,23.64
2022-08-05T21:35:58.700Z,23.59
2022-08-05T21:39:26.933Z,23.56
2022-08-05T21:42:54.539Z,23.53
2022-08-05T21:46:36.877Z,23.51
2022-08-05T21:50:01.899Z,23.40
2022-08-05T21:53:45.507Z,23.35
2022-08-05T21:57:33.681Z,23.30
2022-08-05T22:00:59.765Z,23.26
2022-08-05T22:04:29.918Z,23.24
2022-08-05T22:11:38.920Z,23.17
2022-08-05T22:16:00.814Z,23.13
2022-08-05T22:19:57.072Z,23.05
2022-08-05T22:23:03.935Z,22.96
2022-08-05T22:27:24.908Z,22.88
2022-08-05T22:31:05.739Z,22.82
2022-08-05T22:35:02.892Z,22.74
2022-08-05T22:38:48.905Z,22.69
2022-08-05T22:42:21.458Z,22.65
2022-08-05T22:45:50.749Z,22.60
2022-08-05T22:50:19.838Z,22.58
2022-08-05T22:53:04.653Z,22.55
2022-08-05T22:56:48.556Z,22.52
2022-08-05T23:00:37.305Z,22.44
2022-08-05T23:04:26.068Z,22.39
2022-08-05T23:08:16.577Z,22.34
2022-08-05T23:11:55.774Z,22.32
2022-08-05T23:15:56.609Z,22.25
2022-08-05T23:19:23.743Z,22.21
2022-08-05T23:23:16.664Z,22.23
2022-08-05T23:26:59.870Z,22.25
2022-08-05T23:30:53.088Z,22.23
2022-08-05T23:34:24.732Z,22.15
2022-08-05T23:38:12.172Z,22.10
2022-08-05T23:41:56.502Z,22.08
2022-08-05T23:45:33.740Z,22.03
2022-08-05T23:49:22.291Z,21.98
2022-08-05T23:53:06.834Z,21.96
2022-08-05T23:56:49.636Z,21.88
